sensor_id;sensor_type;location;lat;lon;timestamp;temperature;humidity
68450;SHT30;67758;39.572;2.652;2023-03-20T00:01:12;12.18;84.14
68450;SHT30;67758;39.572;2.652;2023-03-20T00:03:39;12.14;84.19
68450;SHT30;67758;39.572;2.652;2023-03-20T00:06:05;12.05;84.14
68450;SHT30;67758;39.572;2.652;2023-03-20T00:08:33;12.04;84.25
68450;SHT30;67758;39.572;2.652;2023-03-20T00:10:59;11.97;84.26
68450;SHT30;67758;39.572;2.652;2023-03-20T00:13:25;11.94;84.35
68450;SHT30;67758;39.572;2.652;2023-03-20T00:15:52;11.88;84.35
68450;SHT30;67758;39.572;2.652;2023-03-20T00:18:20;11.81;84.50
68450;SHT30;67758;39.572;2.652;2023-03-20T00:20:50;11.87;85.18
68450;SHT30;67758;39.572;2.652;2023-03-20T00:23:18;11.87;85.09
68450;SHT30;67758;39.572;2.652;2023-03-20T00:25:44;11.87;84.14
68450;SHT30;67758;39.572;2.652;2023-03-20T00:30:43;11.75;84.52
68450;SHT30;67758;39.572;2.652;2023-03-20T00:33:09;11.74;84.61
68450;SHT30;67758;39.572;2.652;2023-03-20T00:35:35;11.68;84.64
68450;SHT30;67758;39.572;2.652;2023-03-20T00:38:01;11.70;84.70
68450;SHT30;67758;39.572;2.652;2023-03-20T00:40:29;11.67;84.62
68450;SHT30;67758;39.572;2.652;2023-03-20T00:43:01;11.66;84.65
68450;SHT30;67758;39.572;2.652;2023-03-20T00:45:28;11.64;84.49
68450;SHT30;67758;39.572;2.652;2023-03-20T00:47:55;11.74;84.69
68450;SHT30;67758;39.572;2.652;2023-03-20T00:50:24;11.74;84.04
68450;SHT30;67758;39.572;2.652;2023-03-20T00:52:51;11.71;84.21
68450;SHT30;67758;39.572;2.652;2023-03-20T00:55:19;11.61;83.77
68450;SHT30;67758;39.572;2.652;2023-03-20T00:57:54;11.66;83.86
68450;SHT30;67758;39.572;2.652;2023-03-20T01:00:38;11.57;83.04
68450;SHT30;67758;39.572;2.652;2023-03-20T01:03:20;11.44;82.73
68450;SHT30;67758;39.572;2.652;2023-03-20T01:05:47;11.41;82.69
68450;SHT30;67758;39.572;2.652;2023-03-20T01:08:22;11.40;82.68
68450;SHT30;67758;39.572;2.652;2023-03-20T01:10:51;11.24;82.13
68450;SHT30;67758;39.572;2.652;2023-03-20T01:13:26;11.19;82.01
68450;SHT30;67758;39.572;2.652;2023-03-20T01:15:53;11.13;82.08
68450;SHT30;67758;39.572;2.652;2023-03-20T01:18:21;11.09;81.65
68450;SHT30;67758;39.572;2.652;2023-03-20T01:20:47;11.12;81.33
68450;SHT30;67758;39.572;2.652;2023-03-20T01:23:13;11.07;81.29
68450;SHT30;67758;39.572;2.652;2023-03-20T01:25:40;11.07;81.07
68450;SHT30;67758;39.572;2.652;2023-03-20T01:28:21;11.05;81.36
68450;SHT30;67758;39.572;2.652;2023-03-20T01:30:47;11.06;81.59
68450;SHT30;67758;39.572;2.652;2023-03-20T01:33:21;11.12;80.75
68450;SHT30;67758;39.572;2.652;2023-03-20T01:35:48;11.07;80.55
68450;SHT30;67758;39.572;2.652;2023-03-20T01:38:25;11.10;80.74
68450;SHT30;67758;39.572;2.652;2023-03-20T01:41:05;11.10;80.29
68450;SHT30;67758;39.572;2.652;2023-03-20T01:43:32;11.09;80.43
68450;SHT30;67758;39.572;2.652;2023-03-20T01:46:12;11.05;80.66
68450;SHT30;67758;39.572;2.652;2023-03-20T01:51:21;11.15;80.66
68450;SHT30;67758;39.572;2.652;2023-03-20T01:53:52;11.05;80.68
68450;SHT30;67758;39.572;2.652;2023-03-20T01:56:21;11.00;80.21
68450;SHT30;67758;39.572;2.652;2023-03-20T01:58:51;10.97;80.56
68450;SHT30;67758;39.572;2.652;2023-03-20T02:01:18;10.89;80.61
68450;SHT30;67758;39.572;2.652;2023-03-20T02:03:47;10.96;80.85
68450;SHT30;67758;39.572;2.652;2023-03-20T02:06:14;11.00;81.00
68450;SHT30;67758;39.572;2.652;2023-03-20T02:08:46;10.93;80.49
68450;SHT30;67758;39.572;2.652;2023-03-20T02:11:14;10.92;80.51
68450;SHT30;67758;39.572;2.652;2023-03-20T02:13:41;10.88;80.59
68450;SHT30;67758;39.572;2.652;2023-03-20T02:16:11;10.95;80.72
68450;SHT30;67758;39.572;2.652;2023-03-20T02:18:38;10.92;80.65
68450;SHT30;67758;39.572;2.652;2023-03-20T02:51:36;10.93;80.61
68450;SHT30;67758;39.572;2.652;2023-03-20T02:54:24;10.91;80.51
68450;SHT30;67758;39.572;2.652;2023-03-20T02:57:09;10.89;80.51
68450;SHT30;67758;39.572;2.652;2023-03-20T03:02:36;10.92;80.49
68450;SHT30;67758;39.572;2.652;2023-03-20T03:05:09;10.86;80.45
68450;SHT30;67758;39.572;2.652;2023-03-20T03:07:37;10.85;80.63
68450;SHT30;67758;39.572;2.652;2023-03-20T03:10:09;10.88;80.68
68450;SHT30;67758;39.572;2.652;2023-03-20T03:12:42;10.83;80.57
68450;SHT30;67758;39.572;2.652;2023-03-20T03:17:46;10.88;80.61
68450;SHT30;67758;39.572;2.652;2023-03-20T03:20:20;10.83;80.13
68450;SHT30;67758;39.572;2.652;2023-03-20T03:22:47;10.82;80.08
68450;SHT30;67758;39.572;2.652;2023-03-20T03:25:14;10.80;80.20
68450;SHT30;67758;39.572;2.652;2023-03-20T03:27:42;10.83;80.35
68450;SHT30;67758;39.572;2.652;2023-03-20T03:30:27;10.82;80.33
68450;SHT30;67758;39.572;2.652;2023-03-20T03:35:26;10.97;79.89
68450;SHT30;67758;39.572;2.652;2023-03-20T03:37:59;10.89;80.09
68450;SHT30;67758;39.572;2.652;2023-03-20T03:45:39;10.80;81.86
68450;SHT30;67758;39.572;2.652;2023-03-20T03:48:36;10.83;82.38
68450;SHT30;67758;39.572;2.652;2023-03-20T03:51:13;10.82;81.45
68450;SHT30;67758;39.572;2.652;2023-03-20T03:53:58;10.79;82.06
68450;SHT30;67758;39.572;2.652;2023-03-20T03:56:28;10.80;82.38
68450;SHT30;67758;39.572;2.652;2023-03-20T03:59:00;10.83;82.94
68450;SHT30;67758;39.572;2.652;2023-03-20T04:01:29;10.75;82.19
68450;SHT30;67758;39.572;2.652;2023-03-20T04:04:00;10.69;82.34
68450;SHT30;67758;39.572;2.652;2023-03-20T04:06:27;10.68;82.51
68450;SHT30;67758;39.572;2.652;2023-03-20T04:08:53;10.64;82.71
68450;SHT30;67758;39.572;2.652;2023-03-20T04:11:21;10.64;82.80
68450;SHT30;67758;39.572;2.652;2023-03-20T04:13:49;10.62;83.07
68450;SHT30;67758;39.572;2.652;2023-03-20T04:16:17;10.61;83.15
68450;SHT30;67758;39.572;2.652;2023-03-20T04:18:43;10.61;83.14
68450;SHT30;67758;39.572;2.652;2023-03-20T04:21:10;10.62;83.19
68450;SHT30;67758;39.572;2.652;2023-03-20T04:23:35;10.61;83.26
68450;SHT30;67758;39.572;2.652;2023-03-20T04:26:02;10.68;83.04
68450;SHT30;67758;39.572;2.652;2023-03-20T04:28:28;10.66;82.92
68450;SHT30;67758;39.572;2.652;2023-03-20T04:30:55;10.69;82.93
68450;SHT30;67758;39.572;2.652;2023-03-20T04:33:21;10.69;82.95
68450;SHT30;67758;39.572;2.652;2023-03-20T04:35:47;10.69;82.85
68450;SHT30;67758;39.572;2.652;2023-03-20T04:38:13;10.73;82.92
68450;SHT30;67758;39.572;2.652;2023-03-20T04:40:39;10.69;82.73
68450;SHT30;67758;39.572;2.652;2023-03-20T04:43:04;10.69;82.79
68450;SHT30;67758;39.572;2.652;2023-03-20T04:45:30;10.69;82.91
68450;SHT30;67758;39.572;2.652;2023-03-20T04:47:56;10.62;82.76
68450;SHT30;67758;39.572;2.652;2023-03-20T04:50:21;10.61;82.84
68450;SHT30;67758;39.572;2.652;2023-03-20T04:52:47;10.62;83.10
68450;SHT30;67758;39.572;2.652;2023-03-20T04:55:12;10.68;83.06
68450;SHT30;67758;39.572;2.652;2023-03-20T04:57:38;10.66;83.14
68450;SHT30;67758;39.572;2.652;2023-03-20T05:00:04;10.65;83.03
68450;SHT30;67758;39.572;2.652;2023-03-20T05:02:30;10.61;83.43
68450;SHT30;67758;39.572;2.652;2023-03-20T05:04:55;10.56;83.04
68450;SHT30;67758;39.572;2.652;2023-03-20T05:07:21;10.52;83.13
68450;SHT30;67758;39.572;2.652;2023-03-20T05:09:46;10.51;83.32
68450;SHT30;67758;39.572;2.652;2023-03-20T05:12:12;10.48;83.59
68450;SHT30;67758;39.572;2.652;2023-03-20T05:14:37;10.49;83.77
68450;SHT30;67758;39.572;2.652;2023-03-20T05:17:03;10.46;83.75
68450;SHT30;67758;39.572;2.652;2023-03-20T05:19:29;10.48;83.83
68450;SHT30;67758;39.572;2.652;2023-03-20T05:21:55;10.49;83.65
68450;SHT30;67758;39.572;2.652;2023-03-20T05:24:21;10.56;83.78
68450;SHT30;67758;39.572;2.652;2023-03-20T05:26:46;10.58;83.76
68450;SHT30;67758;39.572;2.652;2023-03-20T05:29:12;10.55;83.91
68450;SHT30;67758;39.572;2.652;2023-03-20T05:31:38;10.55;83.92
68450;SHT30;67758;39.572;2.652;2023-03-20T05:34:03;10.55;83.62
68450;SHT30;67758;39.572;2.652;2023-03-20T05:36:30;10.54;83.51
68450;SHT30;67758;39.572;2.652;2023-03-20T05:38:56;10.55;83.80
68450;SHT30;67758;39.572;2.652;2023-03-20T05:41:22;10.56;84.20
68450;SHT30;67758;39.572;2.652;2023-03-20T05:43:47;10.51;84.10
68450;SHT30;67758;39.572;2.652;2023-03-20T05:46:13;10.52;83.96
68450;SHT30;67758;39.572;2.652;2023-03-20T05:48:39;10.49;84.06
68450;SHT30;67758;39.572;2.652;2023-03-20T05:51:05;10.45;84.06
68450;SHT30;67758;39.572;2.652;2023-03-20T05:53:30;10.44;83.67
68450;SHT30;67758;39.572;2.652;2023-03-20T05:55:56;10.45;83.54
68450;SHT30;67758;39.572;2.652;2023-03-20T05:58:21;10.54;83.77
68450;SHT30;67758;39.572;2.652;2023-03-20T06:00:47;10.58;83.70
68450;SHT30;67758;39.572;2.652;2023-03-20T06:03:13;10.59;83.85
68450;SHT30;67758;39.572;2.652;2023-03-20T06:05:38;10.64;83.65
68450;SHT30;67758;39.572;2.652;2023-03-20T06:08:04;10.78;83.20
68450;SHT30;67758;39.572;2.652;2023-03-20T06:10:30;10.86;82.80
68450;SHT30;67758;39.572;2.652;2023-03-20T06:12:57;10.88;82.20
68450;SHT30;67758;39.572;2.652;2023-03-20T06:15:26;10.89;82.06
68450;SHT30;67758;39.572;2.652;2023-03-20T06:17:53;10.99;82.51
68450;SHT30;67758;39.572;2.652;2023-03-20T06:20:20;10.97;82.40
68450;SHT30;67758;39.572;2.652;2023-03-20T06:22:45;10.96;81.83
68450;SHT30;67758;39.572;2.652;2023-03-20T06:25:11;10.99;80.99
68450;SHT30;67758;39.572;2.652;2023-03-20T06:27:37;11.03;80.68
68450;SHT30;67758;39.572;2.652;2023-03-20T06:30:03;11.02;80.10
68450;SHT30;67758;39.572;2.652;2023-03-20T06:32:29;11.06;80.30
68450;SHT30;67758;39.572;2.652;2023-03-20T06:34:54;11.07;80.23
68450;SHT30;67758;39.572;2.652;2023-03-20T06:37:20;11.05;80.48
68450;SHT30;67758;39.572;2.652;2023-03-20T06:39:46;11.02;80.63
68450;SHT30;67758;39.572;2.652;2023-03-20T06:42:11;11.02;80.68
68450;SHT30;67758;39.572;2.652;2023-03-20T06:44:38;11.13;80.98
68450;SHT30;67758;39.572;2.652;2023-03-20T06:47:04;11.09;80.21
68450;SHT30;67758;39.572;2.652;2023-03-20T06:49:30;11.10;80.15
68450;SHT30;67758;39.572;2.652;2023-03-20T06:51:55;11.17;80.03
68450;SHT30;67758;39.572;2.652;2023-03-20T06:54:21;11.27;79.93
68450;SHT30;67758;39.572;2.652;2023-03-20T06:56:47;11.36;80.11
68450;SHT30;67758;39.572;2.652;2023-03-20T06:59:12;11.36;79.25
68450;SHT30;67758;39.572;2.652;2023-03-20T07:01:38;11.38;79.30
68450;SHT30;67758;39.572;2.652;2023-03-20T07:04:04;11.47;79.39
68450;SHT30;67758;39.572;2.652;2023-03-20T07:06:30;11.44;79.51
68450;SHT30;67758;39.572;2.652;2023-03-20T07:08:56;11.44;80.09
68450;SHT30;67758;39.572;2.652;2023-03-20T07:11:22;11.43;80.35
68450;SHT30;67758;39.572;2.652;2023-03-20T07:13:48;11.50;81.13
68450;SHT30;67758;39.572;2.652;2023-03-20T07:16:13;11.47;81.15
68450;SHT30;67758;39.572;2.652;2023-03-20T07:18:42;11.48;81.19
68450;SHT30;67758;39.572;2.652;2023-03-20T07:21:07;11.58;81.28
68450;SHT30;67758;39.572;2.652;2023-03-20T07:23:33;11.63;81.26
68450;SHT30;67758;39.572;2.652;2023-03-20T07:26:00;11.67;81.33
68450;SHT30;67758;39.572;2.652;2023-03-20T07:28:25;11.81;80.99
68450;SHT30;67758;39.572;2.652;2023-03-20T07:30:51;11.79;80.60
68450;SHT30;67758;39.572;2.652;2023-03-20T07:33:17;11.84;80.24
68450;SHT30;67758;39.572;2.652;2023-03-20T07:35:42;11.89;80.61
68450;SHT30;67758;39.572;2.652;2023-03-20T07:38:08;11.89;80.39
68450;SHT30;67758;39.572;2.652;2023-03-20T07:40:33;12.06;81.07
68450;SHT30;67758;39.572;2.652;2023-03-20T07:42:59;12.11;80.97
68450;SHT30;67758;39.572;2.652;2023-03-20T07:45:25;12.29;81.23
68450;SHT30;67758;39.572;2.652;2023-03-20T07:47:51;12.48;80.58
68450;SHT30;67758;39.572;2.652;2023-03-20T07:50:17;12.59;80.65
68450;SHT30;67758;39.572;2.652;2023-03-20T07:52:49;12.64;80.59
68450;SHT30;67758;39.572;2.652;2023-03-20T07:55:16;12.77;80.61
68450;SHT30;67758;39.572;2.652;2023-03-20T07:57:42;12.91;80.10
68450;SHT30;67758;39.572;2.652;2023-03-20T08:00:09;13.15;79.47
68450;SHT30;67758;39.572;2.652;2023-03-20T08:02:34;13.17;78.76
68450;SHT30;67758;39.572;2.652;2023-03-20T08:05:00;13.15;78.29
68450;SHT30;67758;39.572;2.652;2023-03-20T08:07:26;13.21;78.48
68450;SHT30;67758;39.572;2.652;2023-03-20T08:09:54;13.24;78.02
68450;SHT30;67758;39.572;2.652;2023-03-20T08:12:20;13.31;77.76
68450;SHT30;67758;39.572;2.652;2023-03-20T08:14:46;13.35;77.52
68450;SHT30;67758;39.572;2.652;2023-03-20T08:17:12;13.42;77.44
68450;SHT30;67758;39.572;2.652;2023-03-20T08:19:38;13.51;77.41
68450;SHT30;67758;39.572;2.652;2023-03-20T08:22:03;13.62;77.73
68450;SHT30;67758;39.572;2.652;2023-03-20T08:24:29;13.64;77.13
68450;SHT30;67758;39.572;2.652;2023-03-20T08:26:55;13.66;77.49
68450;SHT30;67758;39.572;2.652;2023-03-20T08:29:21;13.75;77.64
68450;SHT30;67758;39.572;2.652;2023-03-20T08:31:46;13.81;77.86
68450;SHT30;67758;39.572;2.652;2023-03-20T08:34:12;13.87;77.79
68450;SHT30;67758;39.572;2.652;2023-03-20T08:36:40;13.93;77.47
68450;SHT30;67758;39.572;2.652;2023-03-20T08:39:05;13.95;77.06
68450;SHT30;67758;39.572;2.652;2023-03-20T08:41:32;13.96;76.74
68450;SHT30;67758;39.572;2.652;2023-03-20T08:43:58;14.02;77.53
68450;SHT30;67758;39.572;2.652;2023-03-20T08:46:23;14.06;78.09
68450;SHT30;67758;39.572;2.652;2023-03-20T08:48:50;14.10;78.04
68450;SHT30;67758;39.572;2.652;2023-03-20T08:51:17;14.16;77.63
68450;SHT30;67758;39.572;2.652;2023-03-20T08:53:43;14.16;77.60
68450;SHT30;67758;39.572;2.652;2023-03-20T08:56:09;14.15;77.60
68450;SHT30;67758;39.572;2.652;2023-03-20T08:58:34;14.22;77.74
68450;SHT30;67758;39.572;2.652;2023-03-20T09:01:07;14.23;77.15
68450;SHT30;67758;39.572;2.652;2023-03-20T09:03:33;14.27;77.26
68450;SHT30;67758;39.572;2.652;2023-03-20T09:05:59;14.32;77.38
68450;SHT30;67758;39.572;2.652;2023-03-20T09:08:25;14.38;77.13
68450;SHT30;67758;39.572;2.652;2023-03-20T09:10:51;14.36;77.03
68450;SHT30;67758;39.572;2.652;2023-03-20T09:13:16;14.40;76.93
68450;SHT30;67758;39.572;2.652;2023-03-20T09:15:42;14.46;78.04
68450;SHT30;67758;39.572;2.652;2023-03-20T09:18:08;14.50;77.98
68450;SHT30;67758;39.572;2.652;2023-03-20T09:20:34;14.53;77.98
68450;SHT30;67758;39.572;2.652;2023-03-20T09:23:00;14.57;77.51
68450;SHT30;67758;39.572;2.652;2023-03-20T09:25:26;14.60;77.44
68450;SHT30;67758;39.572;2.652;2023-03-20T09:27:52;14.67;77.83
68450;SHT30;67758;39.572;2.652;2023-03-20T09:30:21;14.71;77.84
68450;SHT30;67758;39.572;2.652;2023-03-20T09:32:48;14.80;77.56
68450;SHT30;67758;39.572;2.652;2023-03-20T09:35:15;14.92;77.77
68450;SHT30;67758;39.572;2.652;2023-03-20T09:37:41;14.97;77.79
68450;SHT30;67758;39.572;2.652;2023-03-20T09:40:07;14.99;77.65
68450;SHT30;67758;39.572;2.652;2023-03-20T09:43:01;15.04;78.02
68450;SHT30;67758;39.572;2.652;2023-03-20T09:46:05;15.04;77.90
68450;SHT30;67758;39.572;2.652;2023-03-20T09:51:39;15.32;78.66
68450;SHT30;67758;39.572;2.652;2023-03-20T09:56:42;15.49;77.16
68450;SHT30;67758;39.572;2.652;2023-03-20T09:59:13;15.65;77.33
68450;SHT30;67758;39.572;2.652;2023-03-20T10:01:46;15.73;77.21
68450;SHT30;67758;39.572;2.652;2023-03-20T10:04:13;15.87;76.81
68450;SHT30;67758;39.572;2.652;2023-03-20T10:06:39;15.86;76.88
68450;SHT30;67758;39.572;2.652;2023-03-20T10:09:16;15.82;76.25
68450;SHT30;67758;39.572;2.652;2023-03-20T10:12:09;15.96;77.13
68450;SHT30;67758;39.572;2.652;2023-03-20T10:20:34;16.11;76.51
68450;SHT30;67758;39.572;2.652;2023-03-20T10:23:17;16.25;75.53
68450;SHT30;67758;39.572;2.652;2023-03-20T10:25:59;16.30;76.67
68450;SHT30;67758;39.572;2.652;2023-03-20T10:31:39;16.72;76.50
68450;SHT30;67758;39.572;2.652;2023-03-20T10:36:39;17.09;74.74
68450;SHT30;67758;39.572;2.652;2023-03-20T10:42:12;20.44;64.67
68450;SHT30;67758;39.572;2.652;2023-03-20T10:44:43;20.76;64.45
68450;SHT30;67758;39.572;2.652;2023-03-20T10:47:15;21.27;62.41
68450;SHT30;67758;39.572;2.652;2023-03-20T10:50:03;21.88;59.75
68450;SHT30;67758;39.572;2.652;2023-03-20T10:52:34;22.39;58.72
68450;SHT30;67758;39.572;2.652;2023-03-20T10:55:38;22.75;57.99
68450;SHT30;67758;39.572;2.652;2023-03-20T10:58:20;22.90;56.98
68450;SHT30;67758;39.572;2.652;2023-03-20T11:00:54;23.30;55.48
68450;SHT30;67758;39.572;2.652;2023-03-20T11:03:22;23.23;53.10
68450;SHT30;67758;39.572;2.652;2023-03-20T11:06:11;23.43;50.65
68450;SHT30;67758;39.572;2.652;2023-03-20T11:08:40;23.90;48.54
68450;SHT30;67758;39.572;2.652;2023-03-20T11:11:09;23.66;48.39
68450;SHT30;67758;39.572;2.652;2023-03-20T11:13:41;23.48;47.47
68450;SHT30;67758;39.572;2.652;2023-03-20T11:16:13;23.26;48.02
68450;SHT30;67758;39.572;2.652;2023-03-20T11:18:41;22.77;50.73
68450;SHT30;67758;39.572;2.652;2023-03-20T11:21:17;22.65;50.94
68450;SHT30;67758;39.572;2.652;2023-03-20T11:23:49;23.20;48.91
68450;SHT30;67758;39.572;2.652;2023-03-20T11:26:31;23.30;47.48
68450;SHT30;67758;39.572;2.652;2023-03-20T11:28:59;23.60;47.83
68450;SHT30;67758;39.572;2.652;2023-03-20T11:36:55;23.73;46.49
68450;SHT30;67758;39.572;2.652;2023-03-20T11:39:28;23.39;46.86
68450;SHT30;67758;39.572;2.652;2023-03-20T11:41:59;23.83;46.33
68450;SHT30;67758;39.572;2.652;2023-03-20T11:44:28;24.00;46.37
68450;SHT30;67758;39.572;2.652;2023-03-20T11:47:06;24.00;46.15
68450;SHT30;67758;39.572;2.652;2023-03-20T11:49:56;23.87;45.34
68450;SHT30;67758;39.572;2.652;2023-03-20T11:52:42;23.86;45.60
68450;SHT30;67758;39.572;2.652;2023-03-20T11:55:24;23.79;46.74
68450;SHT30;67758;39.572;2.652;2023-03-20T11:57:55;23.76;45.21
68450;SHT30;67758;39.572;2.652;2023-03-20T12:00:40;23.79;45.28
68450;SHT30;67758;39.572;2.652;2023-03-20T12:03:40;24.00;45.63
68450;SHT30;67758;39.572;2.652;2023-03-20T12:06:18;24.58;44.65
68450;SHT30;67758;39.572;2.652;2023-03-20T12:08:49;24.20;47.18
68450;SHT30;67758;39.572;2.652;2023-03-20T12:13:49;24.31;48.35
68450;SHT30;67758;39.572;2.652;2023-03-20T12:16:21;24.28;47.03
68450;SHT30;67758;39.572;2.652;2023-03-20T12:18:59;24.31;45.36
68450;SHT30;67758;39.572;2.652;2023-03-20T12:21:38;24.45;45.46
68450;SHT30;67758;39.572;2.652;2023-03-20T12:24:40;24.13;46.82
68450;SHT30;67758;39.572;2.652;2023-03-20T12:27:31;23.77;48.18
68450;SHT30;67758;39.572;2.652;2023-03-20T12:30:18;23.79;49.17
68450;SHT30;67758;39.572;2.652;2023-03-20T12:32:55;24.13;47.45
68450;SHT30;67758;39.572;2.652;2023-03-20T12:35:27;23.93;48.15
68450;SHT30;67758;39.572;2.652;2023-03-20T12:37:54;23.79;49.11
68450;SHT30;67758;39.572;2.652;2023-03-20T12:40:28;23.46;49.69
68450;SHT30;67758;39.572;2.652;2023-03-20T12:46:01;23.15;54.54
68450;SHT30;67758;39.572;2.652;2023-03-20T12:51:10;22.34;56.80
68450;SHT30;67758;39.572;2.652;2023-03-20T13:04:34;21.39;58.96
68450;SHT30;67758;39.572;2.652;2023-03-20T13:07:16;21.42;57.96
68450;SHT30;67758;39.572;2.652;2023-03-20T13:20:30;20.98;63.00
68450;SHT30;67758;39.572;2.652;2023-03-20T13:29:25;20.79;57.58
68450;SHT30;67758;39.572;2.652;2023-03-20T13:32:05;20.93;57.35
68450;SHT30;67758;39.572;2.652;2023-03-20T13:34:56;20.90;56.09
68450;SHT30;67758;39.572;2.652;2023-03-20T13:40:10;20.70;58.49
68450;SHT30;67758;39.572;2.652;2023-03-20T13:49:21;20.19;57.61
68450;SHT30;67758;39.572;2.652;2023-03-20T14:00:49;20.00;57.41
68450;SHT30;67758;39.572;2.652;2023-03-20T14:03:36;20.33;59.44
68450;SHT30;67758;39.572;2.652;2023-03-20T14:08:56;20.06;58.15
68450;SHT30;67758;39.572;2.652;2023-03-20T14:11:28;20.04;57.77
68450;SHT30;67758;39.572;2.652;2023-03-20T14:14:29;20.25;58.84
68450;SHT30;67758;39.572;2.652;2023-03-20T14:19:28;20.26;58.81
68450;SHT30;67758;39.572;2.652;2023-03-20T14:21:54;20.32;61.51
68450;SHT30;67758;39.572;2.652;2023-03-20T14:24:22;20.46;62.49
68450;SHT30;67758;39.572;2.652;2023-03-20T14:27:13;20.26;63.44
68450;SHT30;67758;39.572;2.652;2023-03-20T14:29:44;20.37;61.23
68450;SHT30;67758;39.572;2.652;2023-03-20T14:37:37;20.26;57.12
68450;SHT30;67758;39.572;2.652;2023-03-20T14:40:18;20.47;55.97
68450;SHT30;67758;39.572;2.652;2023-03-20T14:42:53;20.22;56.23
68450;SHT30;67758;39.572;2.652;2023-03-20T14:48:15;20.22;56.79
68450;SHT30;67758;39.572;2.652;2023-03-20T14:53:32;20.09;58.21
68450;SHT30;67758;39.572;2.652;2023-03-20T14:56:12;19.91;59.44
68450;SHT30;67758;39.572;2.652;2023-03-20T15:01:14;19.41;59.82
68450;SHT30;67758;39.572;2.652;2023-03-20T15:03:41;19.59;59.38
68450;SHT30;67758;39.572;2.652;2023-03-20T15:06:08;19.57;60.22
68450;SHT30;67758;39.572;2.652;2023-03-20T15:08:48;19.67;60.87
68450;SHT30;67758;39.572;2.652;2023-03-20T15:11:15;19.24;61.28
68450;SHT30;67758;39.572;2.652;2023-03-20T15:13:42;19.21;62.25
68450;SHT30;67758;39.572;2.652;2023-03-20T15:16:12;19.48;61.18
68450;SHT30;67758;39.572;2.652;2023-03-20T15:18:49;19.48;62.42
68450;SHT30;67758;39.572;2.652;2023-03-20T15:21:16;19.51;62.39
68450;SHT30;67758;39.572;2.652;2023-03-20T15:24:00;19.82;62.76
68450;SHT30;67758;39.572;2.652;2023-03-20T15:26:31;19.61;62.64
68450;SHT30;67758;39.572;2.652;2023-03-20T15:29:08;19.44;63.56
68450;SHT30;67758;39.572;2.652;2023-03-20T15:31:37;19.55;63.52
68450;SHT30;67758;39.572;2.652;2023-03-20T15:34:30;19.69;62.48
68450;SHT30;67758;39.572;2.652;2023-03-20T15:36:58;19.31;63.42
68450;SHT30;67758;39.572;2.652;2023-03-20T15:39:29;19.28;63.68
68450;SHT30;67758;39.572;2.652;2023-03-20T15:42:11;19.30;64.44
68450;SHT30;67758;39.572;2.652;2023-03-20T15:44:39;19.48;64.16
68450;SHT30;67758;39.572;2.652;2023-03-20T15:47:14;19.47;64.51
68450;SHT30;67758;39.572;2.652;2023-03-20T15:49:49;19.75;64.08
68450;SHT30;67758;39.572;2.652;2023-03-20T15:52:33;19.85;64.12
68450;SHT30;67758;39.572;2.652;2023-03-20T15:55:22;19.57;64.09
68450;SHT30;67758;39.572;2.652;2023-03-20T15:57:49;19.64;64.22
68450;SHT30;67758;39.572;2.652;2023-03-20T16:00:41;19.43;64.54
68450;SHT30;67758;39.572;2.652;2023-03-20T16:03:07;19.43;65.54
68450;SHT30;67758;39.572;2.652;2023-03-20T16:05:34;19.59;65.17
68450;SHT30;67758;39.572;2.652;2023-03-20T16:08:29;19.48;64.77
68450;SHT30;67758;39.572;2.652;2023-03-20T16:11:04;19.50;64.68
68450;SHT30;67758;39.572;2.652;2023-03-20T16:13:35;19.37;63.39
68450;SHT30;67758;39.572;2.652;2023-03-20T16:16:03;19.21;63.96
68450;SHT30;67758;39.572;2.652;2023-03-20T16:18:34;18.72;65.30
68450;SHT30;67758;39.572;2.652;2023-03-20T16:21:05;18.75;66.87
68450;SHT30;67758;39.572;2.652;2023-03-20T16:26:05;19.06;65.40
68450;SHT30;67758;39.572;2.652;2023-03-20T16:28:35;19.41;64.23
68450;SHT30;67758;39.572;2.652;2023-03-20T16:33:32;19.44;63.69
68450;SHT30;67758;39.572;2.652;2023-03-20T16:35:59;19.38;63.50
68450;SHT30;67758;39.572;2.652;2023-03-20T16:38:29;18.99;64.03
68450;SHT30;67758;39.572;2.652;2023-03-20T16:41:20;18.92;65.03
68450;SHT30;67758;39.572;2.652;2023-03-20T16:43:49;19.10;64.42
68450;SHT30;67758;39.572;2.652;2023-03-20T16:46:19;19.34;63.73
68450;SHT30;67758;39.572;2.652;2023-03-20T16:48:50;19.83;61.79
68450;SHT30;67758;39.572;2.652;2023-03-20T16:51:22;20.34;59.75
68450;SHT30;67758;39.572;2.652;2023-03-20T16:53:58;20.32;59.83
68450;SHT30;67758;39.572;2.652;2023-03-20T16:56:32;20.15;59.94
68450;SHT30;67758;39.572;2.652;2023-03-20T16:59:09;19.88;60.22
68450;SHT30;67758;39.572;2.652;2023-03-20T17:01:40;19.53;61.95
68450;SHT30;67758;39.572;2.652;2023-03-20T17:06:45;18.92;63.29
68450;SHT30;67758;39.572;2.652;2023-03-20T17:09:22;18.69;63.97
68450;SHT30;67758;39.572;2.652;2023-03-20T17:11:54;18.25;65.19
68450;SHT30;67758;39.572;2.652;2023-03-20T17:14:23;18.66;64.20
68450;SHT30;67758;39.572;2.652;2023-03-20T17:16:50;18.89;63.54
68450;SHT30;67758;39.572;2.652;2023-03-20T17:19:18;19.06;62.62
68450;SHT30;67758;39.572;2.652;2023-03-20T17:21:45;19.10;62.55
68450;SHT30;67758;39.572;2.652;2023-03-20T17:24:20;18.87;62.82
68450;SHT30;67758;39.572;2.652;2023-03-20T17:26:53;19.13;62.38
68450;SHT30;67758;39.572;2.652;2023-03-20T17:29:20;18.85;63.43
68450;SHT30;67758;39.572;2.652;2023-03-20T17:31:46;18.49;64.40
68450;SHT30;67758;39.572;2.652;2023-03-20T17:34:12;18.11;66.36
68450;SHT30;67758;39.572;2.652;2023-03-20T17:36:39;18.21;66.43
68450;SHT30;67758;39.572;2.652;2023-03-20T17:39:04;18.25;66.26
68450;SHT30;67758;39.572;2.652;2023-03-20T17:41:31;17.81;67.38
68450;SHT30;67758;39.572;2.652;2023-03-20T17:43:56;17.40;68.22
68450;SHT30;67758;39.572;2.652;2023-03-20T17:46:30;17.15;68.68
68450;SHT30;67758;39.572;2.652;2023-03-20T17:49:05;17.15;69.05
68450;SHT30;67758;39.572;2.652;2023-03-20T17:51:31;16.99;69.34
68450;SHT30;67758;39.572;2.652;2023-03-20T17:53:58;16.92;69.13
68450;SHT30;67758;39.572;2.652;2023-03-20T17:56:25;16.83;69.53
68450;SHT30;67758;39.572;2.652;2023-03-20T17:59:01;16.72;70.08
68450;SHT30;67758;39.572;2.652;2023-03-20T18:01:28;16.48;71.43
68450;SHT30;67758;39.572;2.652;2023-03-20T18:03:54;16.37;72.32
68450;SHT30;67758;39.572;2.652;2023-03-20T18:06:28;16.22;72.42
68450;SHT30;67758;39.572;2.652;2023-03-20T18:08:56;16.14;72.41
68450;SHT30;67758;39.572;2.652;2023-03-20T18:11:22;16.09;72.36
68450;SHT30;67758;39.572;2.652;2023-03-20T18:13:48;16.01;72.00
68450;SHT30;67758;39.572;2.652;2023-03-20T18:16:25;16.01;72.00
68450;SHT30;67758;39.572;2.652;2023-03-20T18:18:51;15.99;71.95
68450;SHT30;67758;39.572;2.652;2023-03-20T18:21:17;16.00;71.90
68450;SHT30;67758;39.572;2.652;2023-03-20T18:23:44;15.94;71.25
68450;SHT30;67758;39.572;2.652;2023-03-20T18:26:24;15.94;71.13